sensor_id;sensor_type;location;lat;lon;timestamp;P1;durP1;ratioP1;P2;durP2;ratioP2
80705;SDS011;70229;48.010;7.852;2023-05-28T00:00:08;8.75;;;5.65;;
80705;SDS011;70229;48.010;7.852;2023-05-28T00:02:35;12.13;;;5.15;;
80705;SDS011;70229;48.010;7.852;2023-05-28T00:05:02;11.02;;;5.70;;
80705;SDS011;70229;48.010;7.852;2023-05-28T00:07:28;12.82;;;5.38;;
80705;SDS011;70229;48.010;7.852;2023-05-28T00:09:55;7.75;;;5.22;;
80705;SDS011;70229;48.010;7.852;2023-05-28T00:12:21;8.48;;;5.25;;
80705;SDS011;70229;48.010;7.852;2023-05-28T00:14:47;9.52;;;5.55;;
80705;SDS011;70229;48.010;7.852;2023-05-28T00:17:13;10.13;;;6.10;;
80705;SDS011;70229;48.010;7.852;2023-05-28T00:19:40;10.80;;;5.10;;
80705;SDS011;70229;48.010;7.852;2023-05-28T00:22:06;8.32;;;4.72;;
80705;SDS011;70229;48.010;7.852;2023-05-28T00:24:32;8.98;;;5.32;;
80705;SDS011;70229;48.010;7.852;2023-05-28T00:26:57;10.55;;;5.32;;
80705;SDS011;70229;48.010;7.852;2023-05-28T00:29:23;9.00;;;5.13;;
80705;SDS011;70229;48.010;7.852;2023-05-28T00:31:52;9.25;;;6.38;;
80705;SDS011;70229;48.010;7.852;2023-05-28T00:34:20;8.75;;;5.18;;
80705;SDS011;70229;48.010;7.852;2023-05-28T00:36:46;7.65;;;5.35;;
80705;SDS011;70229;48.010;7.852;2023-05-28T00:39:13;10.20;;;5.72;;
80705;SDS011;70229;48.010;7.852;2023-05-28T00:41:40;7.32;;;4.65;;
80705;SDS011;70229;48.010;7.852;2023-05-28T00:44:05;10.00;;;5.68;;
80705;SDS011;70229;48.010;7.852;2023-05-28T00:46:34;12.93;;;5.15;;
80705;SDS011;70229;48.010;7.852;2023-05-28T00:49:00;10.52;;;6.25;;
80705;SDS011;70229;48.010;7.852;2023-05-28T00:51:26;8.82;;;5.53;;
80705;SDS011;70229;48.010;7.852;2023-05-28T00:53:53;7.72;;;4.38;;
80705;SDS011;70229;48.010;7.852;2023-05-28T00:56:19;10.90;;;6.72;;
80705;SDS011;70229;48.010;7.852;2023-05-28T00:58:44;10.07;;;5.32;;
80705;SDS011;70229;48.010;7.852;2023-05-28T01:01:13;9.90;;;5.47;;
80705;SDS011;70229;48.010;7.852;2023-05-28T01:03:39;11.15;;;4.78;;
80705;SDS011;70229;48.010;7.852;2023-05-28T01:06:06;9.52;;;5.05;;
80705;SDS011;70229;48.010;7.852;2023-05-28T01:08:34;7.32;;;4.38;;
80705;SDS011;70229;48.010;7.852;2023-05-28T01:11:01;7.25;;;4.38;;
80705;SDS011;70229;48.010;7.852;2023-05-28T01:13:27;15.02;;;6.50;;
80705;SDS011;70229;48.010;7.852;2023-05-28T01:15:53;8.57;;;5.57;;
80705;SDS011;70229;48.010;7.852;2023-05-28T01:18:19;8.73;;;4.68;;
80705;SDS011;70229;48.010;7.852;2023-05-28T01:20:45;12.93;;;6.30;;
80705;SDS011;70229;48.010;7.852;2023-05-28T01:23:11;7.82;;;4.75;;
80705;SDS011;70229;48.010;7.852;2023-05-28T01:25:41;10.77;;;6.07;;
80705;SDS011;70229;48.010;7.852;2023-05-28T01:28:13;9.90;;;6.47;;
80705;SDS011;70229;48.010;7.852;2023-05-28T01:30:38;9.32;;;6.10;;
80705;SDS011;70229;48.010;7.852;2023-05-28T01:33:05;12.23;;;6.30;;
80705;SDS011;70229;48.010;7.852;2023-05-28T01:35:31;11.93;;;5.75;;
80705;SDS011;70229;48.010;7.852;2023-05-28T01:37:58;8.95;;;5.43;;
80705;SDS011;70229;48.010;7.852;2023-05-28T01:40:26;17.08;;;6.90;;
80705;SDS011;70229;48.010;7.852;2023-05-28T01:42:52;10.00;;;5.03;;
80705;SDS011;70229;48.010;7.852;2023-05-28T01:45:22;8.68;;;4.88;;
80705;SDS011;70229;48.010;7.852;2023-05-28T01:47:48;13.05;;;5.30;;
80705;SDS011;70229;48.010;7.852;2023-05-28T01:50:15;15.27;;;6.10;;
80705;SDS011;70229;48.010;7.852;2023-05-28T01:52:40;11.77;;;6.40;;
80705;SDS011;70229;48.010;7.852;2023-05-28T01:55:07;9.95;;;5.65;;
80705;SDS011;70229;48.010;7.852;2023-05-28T01:57:39;9.27;;;4.90;;
80705;SDS011;70229;48.010;7.852;2023-05-28T02:00:06;8.13;;;5.65;;
80705;SDS011;70229;48.010;7.852;2023-05-28T02:02:32;8.57;;;6.18;;
80705;SDS011;70229;48.010;7.852;2023-05-28T02:04:59;14.93;;;5.68;;
80705;SDS011;70229;48.010;7.852;2023-05-28T02:07:25;9.02;;;5.45;;
80705;SDS011;70229;48.010;7.852;2023-05-28T02:09:50;7.97;;;5.80;;
80705;SDS011;70229;48.010;7.852;2023-05-28T02:12:16;7.30;;;4.80;;
80705;SDS011;70229;48.010;7.852;2023-05-28T02:14:42;10.70;;;5.80;;
80705;SDS011;70229;48.010;7.852;2023-05-28T02:17:08;11.45;;;6.20;;
80705;SDS011;70229;48.010;7.852;2023-05-28T02:19:37;9.07;;;5.35;;
80705;SDS011;70229;48.010;7.852;2023-05-28T02:22:03;9.40;;;5.25;;
80705;SDS011;70229;48.010;7.852;2023-05-28T02:24:36;9.65;;;5.22;;
80705;SDS011;70229;48.010;7.852;2023-05-28T02:27:03;9.32;;;4.80;;
80705;SDS011;70229;48.010;7.852;2023-05-28T02:29:29;11.35;;;5.15;;
80705;SDS011;70229;48.010;7.852;2023-05-28T02:31:55;15.30;;;6.07;;
80705;SDS011;70229;48.010;7.852;2023-05-28T02:34:20;13.23;;;6.65;;
80705;SDS011;70229;48.010;7.852;2023-05-28T02:36:46;7.60;;;5.05;;
80705;SDS011;70229;48.010;7.852;2023-05-28T02:39:12;8.93;;;5.38;;
80705;SDS011;70229;48.010;7.852;2023-05-28T02:41:38;12.52;;;5.90;;
80705;SDS011;70229;48.010;7.852;2023-05-28T02:44:03;11.70;;;5.50;;
80705;SDS011;70229;48.010;7.852;2023-05-28T02:46:29;9.68;;;4.78;;
80705;SDS011;70229;48.010;7.852;2023-05-28T02:48:55;7.55;;;4.25;;
80705;SDS011;70229;48.010;7.852;2023-05-28T02:51:20;11.88;;;5.22;;
80705;SDS011;70229;48.010;7.852;2023-05-28T02:53:46;7.53;;;4.30;;
80705;SDS011;70229;48.010;7.852;2023-05-28T02:56:11;12.68;;;5.30;;
80705;SDS011;70229;48.010;7.852;2023-05-28T02:58:37;8.23;;;4.45;;
80705;SDS011;70229;48.010;7.852;2023-05-28T03:01:03;8.32;;;5.00;;
80705;SDS011;70229;48.010;7.852;2023-05-28T03:03:28;11.82;;;5.53;;
80705;SDS011;70229;48.010;7.852;2023-05-28T03:05:54;8.85;;;4.80;;
80705;SDS011;70229;48.010;7.852;2023-05-28T03:08:20;8.65;;;5.18;;
80705;SDS011;70229;48.010;7.852;2023-05-28T03:10:45;11.35;;;5.25;;
80705;SDS011;70229;48.010;7.852;2023-05-28T03:13:11;8.05;;;4.50;;
80705;SDS011;70229;48.010;7.852;2023-05-28T03:15:36;9.50;;;5.00;;
80705;SDS011;70229;48.010;7.852;2023-05-28T03:18:02;7.80;;;4.53;;
80705;SDS011;70229;48.010;7.852;2023-05-28T03:20:28;8.02;;;4.70;;
80705;SDS011;70229;48.010;7.852;2023-05-28T03:22:55;9.77;;;5.90;;
80705;SDS011;70229;48.010;7.852;2023-05-28T03:25:22;9.80;;;5.53;;
80705;SDS011;70229;48.010;7.852;2023-05-28T03:27:48;9.02;;;6.32;;
80705;SDS011;70229;48.010;7.852;2023-05-28T03:30:14;6.93;;;4.30;;
80705;SDS011;70229;48.010;7.852;2023-05-28T03:32:40;10.57;;;5.97;;
80705;SDS011;70229;48.010;7.852;2023-05-28T03:35:06;8.90;;;4.38;;
80705;SDS011;70229;48.010;7.852;2023-05-28T03:37:32;6.20;;;4.00;;
80705;SDS011;70229;48.010;7.852;2023-05-28T03:39:58;10.13;;;5.13;;
80705;SDS011;70229;48.010;7.852;2023-05-28T03:42:23;11.88;;;5.28;;
80705;SDS011;70229;48.010;7.852;2023-05-28T03:44:49;8.50;;;5.03;;
80705;SDS011;70229;48.010;7.852;2023-05-28T03:47:15;7.32;;;4.15;;
80705;SDS011;70229;48.010;7.852;2023-05-28T03:49:40;8.93;;;4.40;;
80705;SDS011;70229;48.010;7.852;2023-05-28T03:52:06;10.98;;;6.57;;
80705;SDS011;70229;48.010;7.852;2023-05-28T03:54:32;9.10;;;5.55;;
80705;SDS011;70229;48.010;7.852;2023-05-28T03:56:58;12.85;;;5.28;;
80705;SDS011;70229;48.010;7.852;2023-05-28T03:59:23;10.20;;;5.18;;
80705;SDS011;70229;48.010;7.852;2023-05-28T04:01:49;8.68;;;4.88;;
80705;SDS011;70229;48.010;7.852;2023-05-28T04:04:15;9.10;;;4.40;;
80705;SDS011;70229;48.010;7.852;2023-05-28T04:06:41;13.38;;;6.82;;
80705;SDS011;70229;48.010;7.852;2023-05-28T04:09:07;13.35;;;5.28;;
80705;SDS011;70229;48.010;7.852;2023-05-28T04:11:33;8.27;;;4.63;;
80705;SDS011;70229;48.010;7.852;2023-05-28T04:14:02;7.03;;;4.13;;
80705;SDS011;70229;48.010;7.852;2023-05-28T04:16:28;12.98;;;5.18;;
80705;SDS011;70229;48.010;7.852;2023-05-28T04:18:54;10.10;;;4.95;;
80705;SDS011;70229;48.010;7.852;2023-05-28T04:21:20;8.70;;;3.97;;
80705;SDS011;70229;48.010;7.852;2023-05-28T04:23:46;8.88;;;4.53;;
80705;SDS011;70229;48.010;7.852;2023-05-28T04:26:12;8.65;;;4.55;;
80705;SDS011;70229;48.010;7.852;2023-05-28T04:28:39;19.55;;;5.68;;
80705;SDS011;70229;48.010;7.852;2023-05-28T04:31:06;14.35;;;6.30;;
80705;SDS011;70229;48.010;7.852;2023-05-28T04:33:32;10.50;;;5.60;;
80705;SDS011;70229;48.010;7.852;2023-05-28T04:35:58;9.73;;;4.55;;
80705;SDS011;70229;48.010;7.852;2023-05-28T04:38:25;13.57;;;5.40;;
80705;SDS011;70229;48.010;7.852;2023-05-28T04:40:54;8.38;;;4.57;;
80705;SDS011;70229;48.010;7.852;2023-05-28T04:43:19;12.48;;;5.18;;
80705;SDS011;70229;48.010;7.852;2023-05-28T04:45:46;7.95;;;4.28;;
80705;SDS011;70229;48.010;7.852;2023-05-28T04:48:12;10.77;;;4.85;;
80705;SDS011;70229;48.010;7.852;2023-05-28T04:50:38;11.82;;;5.90;;
80705;SDS011;70229;48.010;7.852;2023-05-28T04:53:05;9.73;;;5.85;;
80705;SDS011;70229;48.010;7.852;2023-05-28T04:55:30;7.60;;;4.30;;
80705;SDS011;70229;48.010;7.852;2023-05-28T04:57:56;10.77;;;5.13;;
80705;SDS011;70229;48.010;7.852;2023-05-28T05:00:21;14.52;;;6.43;;
80705;SDS011;70229;48.010;7.852;2023-05-28T05:02:52;8.85;;;5.13;;
80705;SDS011;70229;48.010;7.852;2023-05-28T05:05:18;7.60;;;4.65;;
80705;SDS011;70229;48.010;7.852;2023-05-28T05:07:44;12.85;;;5.57;;
80705;SDS011;70229;48.010;7.852;2023-05-28T05:10:10;7.90;;;4.55;;
80705;SDS011;70229;48.010;7.852;2023-05-28T05:12:36;9.63;;;5.18;;
80705;SDS011;70229;48.010;7.852;2023-05-28T05:15:03;9.70;;;4.90;;
80705;SDS011;70229;48.010;7.852;2023-05-28T05:17:30;7.40;;;4.57;;
80705;SDS011;70229;48.010;7.852;2023-05-28T05:19:56;9.75;;;6.03;;
80705;SDS011;70229;48.010;7.852;2023-05-28T05:22:22;9.77;;;5.28;;
80705;SDS011;70229;48.010;7.852;2023-05-28T05:24:48;12.75;;;5.80;;
80705;SDS011;70229;48.010;7.852;2023-05-28T05:27:14;7.55;;;4.97;;
80705;SDS011;70229;48.010;7.852;2023-05-28T05:29:40;9.15;;;4.70;;
80705;SDS011;70229;48.010;7.852;2023-05-28T05:32:06;9.32;;;4.97;;
80705;SDS011;70229;48.010;7.852;2023-05-28T05:34:32;9.43;;;4.35;;
80705;SDS011;70229;48.010;7.852;2023-05-28T05:36:58;10.35;;;5.82;;
80705;SDS011;70229;48.010;7.852;2023-05-28T05:39:24;10.02;;;4.90;;
80705;SDS011;70229;48.010;7.852;2023-05-28T05:41:50;11.05;;;5.10;;
80705;SDS011;70229;48.010;7.852;2023-05-28T05:44:15;8.55;;;5.07;;
80705;SDS011;70229;48.010;7.852;2023-05-28T05:46:41;6.72;;;4.35;;
80705;SDS011;70229;48.010;7.852;2023-05-28T05:49:07;12.40;;;5.40;;
80705;SDS011;70229;48.010;7.852;2023-05-28T05:51:33;9.75;;;5.05;;
80705;SDS011;70229;48.010;7.852;2023-05-28T05:53:59;11.57;;;5.18;;
80705;SDS011;70229;48.010;7.852;2023-05-28T05:56:24;9.13;;;4.82;;
80705;SDS011;70229;48.010;7.852;2023-05-28T05:58:53;8.55;;;5.97;;
80705;SDS011;70229;48.010;7.852;2023-05-28T06:01:19;7.32;;;4.45;;
80705;SDS011;70229;48.010;7.852;2023-05-28T06:03:45;10.38;;;5.60;;
80705;SDS011;70229;48.010;7.852;2023-05-28T06:06:11;11.18;;;5.15;;
80705;SDS011;70229;48.010;7.852;2023-05-28T06:08:37;10.23;;;5.78;;
80705;SDS011;70229;48.010;7.852;2023-05-28T06:11:04;9.00;;;5.78;;
80705;SDS011;70229;48.010;7.852;2023-05-28T06:13:29;8.98;;;4.25;;
80705;SDS011;70229;48.010;7.852;2023-05-28T06:15:56;8.02;;;4.20;;
80705;SDS011;70229;48.010;7.852;2023-05-28T06:18:22;12.00;;;4.72;;
80705;SDS011;70229;48.010;7.852;2023-05-28T06:20:49;10.27;;;4.25;;
80705;SDS011;70229;48.010;7.852;2023-05-28T06:23:14;7.05;;;4.32;;
80705;SDS011;70229;48.010;7.852;2023-05-28T06:25:41;9.55;;;4.63;;
80705;SDS011;70229;48.010;7.852;2023-05-28T06:28:06;11.75;;;4.15;;
80705;SDS011;70229;48.010;7.852;2023-05-28T06:30:32;8.02;;;4.57;;
80705;SDS011;70229;48.010;7.852;2023-05-28T06:32:58;6.68;;;4.93;;
80705;SDS011;70229;48.010;7.852;2023-05-28T06:35:23;16.75;;;4.80;;
80705;SDS011;70229;48.010;7.852;2023-05-28T06:37:49;8.55;;;4.72;;
80705;SDS011;70229;48.010;7.852;2023-05-28T06:40:15;8.85;;;4.55;;
80705;SDS011;70229;48.010;7.852;2023-05-28T06:42:40;10.05;;;4.85;;
80705;SDS011;70229;48.010;7.852;2023-05-28T06:45:06;11.18;;;5.53;;
80705;SDS011;70229;48.010;7.852;2023-05-28T06:47:32;9.32;;;4.50;;
80705;SDS011;70229;48.010;7.852;2023-05-28T06:49:58;12.70;;;5.50;;
80705;SDS011;70229;48.010;7.852;2023-05-28T06:52:24;9.25;;;4.55;;
80705;SDS011;70229;48.010;7.852;2023-05-28T06:54:50;13.02;;;4.95;;
80705;SDS011;70229;48.010;7.852;2023-05-28T06:57:16;7.53;;;4.93;;
80705;SDS011;70229;48.010;7.852;2023-05-28T06:59:41;7.95;;;4.13;;
80705;SDS011;70229;48.010;7.852;2023-05-28T07:02:07;7.93;;;4.68;;
80705;SDS011;70229;48.010;7.852;2023-05-28T07:04:32;7.05;;;4.13;;
80705;SDS011;70229;48.010;7.852;2023-05-28T07:06:58;10.30;;;4.88;;
80705;SDS011;70229;48.010;7.852;2023-05-28T07:09:23;5.88;;;2.85;;
80705;SDS011;70229;48.010;7.852;2023-05-28T07:11:49;7.95;;;4.00;;
80705;SDS011;70229;48.010;7.852;2023-05-28T07:14:15;11.70;;;4.75;;
80705;SDS011;70229;48.010;7.852;2023-05-28T07:16:41;7.22;;;4.28;;
80705;SDS011;70229;48.010;7.852;2023-05-28T07:19:07;9.45;;;4.78;;
80705;SDS011;70229;48.010;7.852;2023-05-28T07:21:32;8.23;;;4.43;;
80705;SDS011;70229;48.010;7.852;2023-05-28T07:23:58;9.95;;;4.72;;
80705;SDS011;70229;48.010;7.852;2023-05-28T07:26:24;7.18;;;4.05;;
80705;SDS011;70229;48.010;7.852;2023-05-28T07:28:51;14.80;;;4.78;;
80705;SDS011;70229;48.010;7.852;2023-05-28T07:31:16;10.48;;;4.30;;
80705;SDS011;70229;48.010;7.852;2023-05-28T07:33:42;8.30;;;4.60;;
80705;SDS011;70229;48.010;7.852;2023-05-28T07:36:08;10.30;;;4.65;;
80705;SDS011;70229;48.010;7.852;2023-05-28T07:38:36;7.70;;;4.70;;
80705;SDS011;70229;48.010;7.852;2023-05-28T07:41:02;12.05;;;3.95;;
80705;SDS011;70229;48.010;7.852;2023-05-28T07:43:27;8.23;;;4.20;;
80705;SDS011;70229;48.010;7.852;2023-05-28T07:45:53;9.07;;;4.72;;
80705;SDS011;70229;48.010;7.852;2023-05-28T07:48:19;10.15;;;3.88;;
80705;SDS011;70229;48.010;7.852;2023-05-28T07:50:44;12.15;;;4.25;;
80705;SDS011;70229;48.010;7.852;2023-05-28T07:53:14;9.85;;;3.90;;
80705;SDS011;70229;48.010;7.852;2023-05-28T07:55:44;9.18;;;4.38;;
80705;SDS011;70229;48.010;7.852;2023-05-28T07:58:10;12.70;;;4.32;;
80705;SDS011;70229;48.010;7.852;2023-05-28T08:00:37;7.45;;;4.15;;
80705;SDS011;70229;48.010;7.852;2023-05-28T08:03:06;10.02;;;3.22;;
80705;SDS011;70229;48.010;7.852;2023-05-28T08:05:32;7.50;;;4.53;;
80705;SDS011;70229;48.010;7.852;2023-05-28T08:07:58;13.95;;;5.03;;
80705;SDS011;70229;48.010;7.852;2023-05-28T08:10:24;9.95;;;4.95;;
80705;SDS011;70229;48.010;7.852;2023-05-28T08:12:50;6.82;;;3.97;;
80705;SDS011;70229;48.010;7.852;2023-05-28T08:15:16;8.85;;;4.97;;
80705;SDS011;70229;48.010;7.852;2023-05-28T08:17:41;7.93;;;3.88;;
80705;SDS011;70229;48.010;7.852;2023-05-28T08:20:07;8.88;;;3.92;;
80705;SDS011;70229;48.010;7.852;2023-05-28T08:22:34;9.43;;;4.93;;
80705;SDS011;70229;48.010;7.852;2023-05-28T08:25:00;7.25;;;4.10;;
80705;SDS011;70229;48.010;7.852;2023-05-28T08:27:26;9.48;;;4.28;;
80705;SDS011;70229;48.010;7.852;2023-05-28T08:29:51;7.05;;;4.18;;
80705;SDS011;70229;48.010;7.852;2023-05-28T08:32:17;8.40;;;4.43;;
80705;SDS011;70229;48.010;7.852;2023-05-28T08:34:42;8.43;;;4.68;;
80705;SDS011;70229;48.010;7.852;2023-05-28T08:37:09;6.45;;;4.13;;
80705;SDS011;70229;48.010;7.852;2023-05-28T08:39:35;10.63;;;3.55;;
80705;SDS011;70229;48.010;7.852;2023-05-28T08:42:03;9.52;;;4.75;;
80705;SDS011;70229;48.010;7.852;2023-05-28T08:44:29;13.27;;;4.60;;
80705;SDS011;70229;48.010;7.852;2023-05-28T08:46:55;10.07;;;4.55;;
80705;SDS011;70229;48.010;7.852;2023-05-28T08:49:21;9.60;;;3.92;;
80705;SDS011;70229;48.010;7.852;2023-05-28T08:54:22;6.97;;;3.50;;
80705;SDS011;70229;48.010;7.852;2023-05-28T08:56:47;9.82;;;3.95;;
80705;SDS011;70229;48.010;7.852;2023-05-28T08:59:13;8.43;;;4.38;;
80705;SDS011;70229;48.010;7.852;2023-05-28T09:01:41;10.23;;;3.85;;
80705;SDS011;70229;48.010;7.852;2023-05-28T09:04:06;10.60;;;4.72;;
80705;SDS011;70229;48.010;7.852;2023-05-28T09:06:32;6.47;;;3.72;;
80705;SDS011;70229;48.010;7.852;2023-05-28T09:09:01;10.68;;;4.25;;
80705;SDS011;70229;48.010;7.852;2023-05-28T09:11:27;12.73;;;4.95;;
80705;SDS011;70229;48.010;7.852;2023-05-28T09:13:53;10.70;;;4.05;;
80705;SDS011;70229;48.010;7.852;2023-05-28T09:16:19;7.47;;;3.55;;
80705;SDS011;70229;48.010;7.852;2023-05-28T09:18:50;7.25;;;3.70;;
80705;SDS011;70229;48.010;7.852;2023-05-28T09:21:20;9.20;;;4.30;;
80705;SDS011;70229;48.010;7.852;2023-05-28T09:23:49;7.25;;;4.22;;
80705;SDS011;70229;48.010;7.852;2023-05-28T09:26:16;8.43;;;3.90;;
80705;SDS011;70229;48.010;7.852;2023-05-28T09:28:44;6.30;;;3.97;;
80705;SDS011;70229;48.010;7.852;2023-05-28T09:31:10;6.90;;;3.45;;
80705;SDS011;70229;48.010;7.852;2023-05-28T09:33:44;7.80;;;4.40;;
80705;SDS011;70229;48.010;7.852;2023-05-28T09:36:10;8.90;;;4.60;;
80705;SDS011;70229;48.010;7.852;2023-05-28T09:38:39;9.82;;;4.82;;
80705;SDS011;70229;48.010;7.852;2023-05-28T09:41:19;8.10;;;4.78;;
80705;SDS011;70229;48.010;7.852;2023-05-28T09:43:45;9.32;;;4.03;;
80705;SDS011;70229;48.010;7.852;2023-05-28T09:46:11;10.77;;;5.07;;
80705;SDS011;70229;48.010;7.852;2023-05-28T09:48:37;9.45;;;4.32;;
80705;SDS011;70229;48.010;7.852;2023-05-28T09:51:03;8.00;;;4.45;;
80705;SDS011;70229;48.010;7.852;2023-05-28T09:53:30;8.85;;;4.22;;
80705;SDS011;70229;48.010;7.852;2023-05-28T09:55:59;10.18;;;3.92;;
80705;SDS011;70229;48.010;7.852;2023-05-28T09:58:32;9.55;;;4.18;;
80705;SDS011;70229;48.010;7.852;2023-05-28T10:01:00;7.82;;;4.30;;
80705;SDS011;70229;48.010;7.852;2023-05-28T10:03:39;9.48;;;4.43;;
80705;SDS011;70229;48.010;7.852;2023-05-28T10:06:16;12.27;;;4.18;;
80705;SDS011;70229;48.010;7.852;2023-05-28T10:08:44;8.35;;;3.78;;
80705;SDS011;70229;48.010;7.852;2023-05-28T10:11:15;9.70;;;4.85;;
80705;SDS011;70229;48.010;7.852;2023-05-28T10:13:42;6.18;;;3.95;;
80705;SDS011;70229;48.010;7.852;2023-05-28T10:16:08;6.60;;;3.75;;
80705;SDS011;70229;48.010;7.852;2023-05-28T10:18:34;7.32;;;3.63;;
80705;SDS011;70229;48.010;7.852;2023-05-28T10:21:00;7.43;;;4.53;;
80705;SDS011;70229;48.010;7.852;2023-05-28T10:23:26;7.53;;;4.43;;
80705;SDS011;70229;48.010;7.852;2023-05-28T10:25:53;6.60;;;4.20;;
80705;SDS011;70229;48.010;7.852;2023-05-28T10:28:20;7.80;;;4.35;;
80705;SDS011;70229;48.010;7.852;2023-05-28T10:30:46;11.45;;;4.22;;
80705;SDS011;70229;48.010;7.852;2023-05-28T10:33:29;9.23;;;4.90;;
80705;SDS011;70229;48.010;7.852;2023-05-28T10:35:56;7.00;;;3.58;;
80705;SDS011;70229;48.010;7.852;2023-05-28T10:38:24;9.68;;;4.60;;
80705;SDS011;70229;48.010;7.852;2023-05-28T10:40:50;13.13;;;5.20;;
80705;SDS011;70229;48.010;7.852;2023-05-28T10:46:08;7.20;;;4.57;;
80705;SDS011;70229;48.010;7.852;2023-05-28T10:48:37;7.22;;;3.97;;
80705;SDS011;70229;48.010;7.852;2023-05-28T10:51:04;10.50;;;4.65;;
80705;SDS011;70229;48.010;7.852;2023-05-28T10:53:30;8.15;;;4.43;;
80705;SDS011;70229;48.010;7.852;2023-05-28T10:55:56;10.15;;;4.03;;
80705;SDS011;70229;48.010;7.852;2023-05-28T10:58:43;11.43;;;3.83;;
80705;SDS011;70229;48.010;7.852;2023-05-28T11:06:09;7.15;;;3.70;;
80705;SDS011;70229;48.010;7.852;2023-05-28T11:08:40;8.43;;;4.90;;
80705;SDS011;70229;48.010;7.852;2023-05-28T11:11:13;8.13;;;3.70;;
80705;SDS011;70229;48.010;7.852;2023-05-28T11:13:44;8.38;;;3.83;;
80705;SDS011;70229;48.010;7.852;2023-05-28T11:16:11;6.72;;;3.65;;
80705;SDS011;70229;48.010;7.852;2023-05-28T11:18:38;10.63;;;3.83;;
80705;SDS011;70229;48.010;7.852;2023-05-28T11:21:04;7.78;;;3.80;;
80705;SDS011;70229;48.010;7.852;2023-05-28T11:23:32;9.43;;;3.58;;
80705;SDS011;70229;48.010;7.852;2023-05-28T11:26:02;8.90;;;4.57;;
80705;SDS011;70229;48.010;7.852;2023-05-28T11:28:28;4.97;;;3.35;;
80705;SDS011;70229;48.010;7.852;2023-05-28T11:30:55;9.25;;;4.05;;
80705;SDS011;70229;48.010;7.852;2023-05-28T11:33:28;10.65;;;4.65;;
80705;SDS011;70229;48.010;7.852;2023-05-28T11:36:00;9.05;;;4.10;;
80705;SDS011;70229;48.010;7.852;2023-05-28T11:38:27;7.25;;;3.63;;
80705;SDS011;70229;48.010;7.852;2023-05-28T11:41:02;6.82;;;3.80;;
80705;SDS011;70229;48.010;7.852;2023-05-28T11:43:27;6.90;;;3.10;;
80705;SDS011;70229;48.010;7.852;2023-05-28T11:45:57;10.63;;;3.97;;
80705;SDS011;70229;48.010;7.852;2023-05-28T11:48:24;7.65;;;3.47;;
80705;SDS011;70229;48.010;7.852;2023-05-28T11:50:58;8.02;;;3.72;;
80705;SDS011;70229;48.010;7.852;2023-05-28T11:53:37;7.22;;;3.35;;
80705;SDS011;70229;48.010;7.852;2023-05-28T11:56:03;8.80;;;4.60;;
80705;SDS011;70229;48.010;7.852;2023-05-28T11:58:30;7.78;;;3.40;;
80705;SDS011;70229;48.010;7.852;2023-05-28T12:00:56;11.75;;;3.80;;
80705;SDS011;70229;48.010;7.852;2023-05-28T12:03:24;8.10;;;3.75;;
80705;SDS011;70229;48.010;7.852;2023-05-28T12:05:51;7.88;;;3.03;;
80705;SDS011;70229;48.010;7.852;2023-05-28T12:08:19;6.18;;;3.13;;
80705;SDS011;70229;48.010;7.852;2023-05-28T12:10:45;7.97;;;3.97;;
80705;SDS011;70229;48.010;7.852;2023-05-28T12:13:14;4.93;;;3.53;;
80705;SDS011;70229;48.010;7.852;2023-05-28T12:15:40;7.47;;;3.55;;
80705;SDS011;70229;48.010;7.852;2023-05-28T12:18:06;7.32;;;4.07;;
80705;SDS011;70229;48.010;7.852;2023-05-28T12:20:33;10.27;;;4.47;;
80705;SDS011;70229;48.010;7.852;2023-05-28T12:23:05;8.15;;;4.43;;
80705;SDS011;70229;48.010;7.852;2023-05-28T12:28:07;9.57;;;4.28;;
80705;SDS011;70229;48.010;7.852;2023-05-28T12:30:33;9.88;;;4.22;;
80705;SDS011;70229;48.010;7.852;2023-05-28T12:32:59;6.60;;;3.25;;
80705;SDS011;70229;48.010;7.852;2023-05-28T12:35:26;8.60;;;3.75;;
80705;SDS011;70229;48.010;7.852;2023-05-28T12:37:51;6.30;;;3.92;;
80705;SDS011;70229;48.010;7.852;2023-05-28T12:40:17;11.80;;;4.60;;
80705;SDS011;70229;48.010;7.852;2023-05-28T12:42:42;8.30;;;3.70;;
80705;SDS011;70229;48.010;7.852;2023-05-28T12:45:08;7.07;;;3.90;;
80705;SDS011;70229;48.010;7.852;2023-05-28T12:47:34;6.32;;;3.35;;
80705;SDS011;70229;48.010;7.852;2023-05-28T12:49:59;8.75;;;3.63;;
80705;SDS011;70229;48.010;7.852;2023-05-28T12:52:25;5.85;;;3.20;;
80705;SDS011;70229;48.010;7.852;2023-05-28T12:54:50;7.00;;;3.53;;
80705;SDS011;70229;48.010;7.852;2023-05-28T12:57:16;6.88;;;4.00;;
80705;SDS011;70229;48.010;7.852;2023-05-28T12:59:42;9.38;;;3.65;;
80705;SDS011;70229;48.010;7.852;2023-05-28T13:02:07;10.25;;;3.95;;
80705;SDS011;70229;48.010;7.852;2023-05-28T13:04:33;7.20;;;3.30;;
80705;SDS011;70229;48.010;7.852;2023-05-28T13:06:58;7.20;;;3.25;;
80705;SDS011;70229;48.010;7.852;2023-05-28T13:09:24;8.52;;;2.97;;
80705;SDS011;70229;48.010;7.852;2023-05-28T13:11:50;7.47;;;3.45;;
80705;SDS011;70229;48.010;7.852;2023-05-28T13:14:16;9.75;;;4.05;;
80705;SDS011;70229;48.010;7.852;2023-05-28T13:16:42;6.75;;;2.97;;
80705;SDS011;70229;48.010;7.852;2023-05-28T13:19:07;8.77;;;3.08;;
80705;SDS011;70229;48.010;7.852;2023-05-28T13:21:33;7.00;;;3.17;;
80705;SDS011;70229;48.010;7.852;2023-05-28T13:24:03;5.53;;;3.38;;
80705;SDS011;70229;48.010;7.852;2023-05-28T13:26:32;11.50;;;5.30;;
80705;SDS011;70229;48.010;7.852;2023-05-28T13:28:59;8.18;;;3.90;;
80705;SDS011;70229;48.010;7.852;2023-05-28T13:31:25;8.20;;;4.22;;
80705;SDS011;70229;48.010;7.852;2023-05-28T13:33:51;8.60;;;4.25;;
80705;SDS011;70229;48.010;7.852;2023-05-28T13:36:17;7.65;;;3.60;;
80705;SDS011;70229;48.010;7.852;2023-05-28T13:38:43;6.47;;;3.42;;
80705;SDS011;70229;48.010;7.852;2023-05-28T13:41:09;6.95;;;3.97;;
80705;SDS011;70229;48.010;7.852;2023-05-28T13:43:37;7.45;;;2.92;;
80705;SDS011;70229;48.010;7.852;2023-05-28T13:46:06;8.60;;;4.18;;
80705;SDS011;70229;48.010;7.852;2023-05-28T13:48:32;9.05;;;3.55;;
80705;SDS011;70229;48.010;7.852;2023-05-28T13:50:58;7.35;;;3.70;;
80705;SDS011;70229;48.010;7.852;2023-05-28T13:53:25;5.38;;;3.28;;
80705;SDS011;70229;48.010;7.852;2023-05-28T13:55:54;6.95;;;3.42;;
80705;SDS011;70229;48.010;7.852;2023-05-28T13:58:20;7.18;;;3.20;;
80705;SDS011;70229;48.010;7.852;2023-05-28T14:00:46;7.40;;;3.65;;
80705;SDS011;70229;48.010;7.852;2023-05-28T14:03:11;6.05;;;3.67;;
80705;SDS011;70229;48.010;7.852;2023-05-28T14:05:39;9.90;;;3.75;;
80705;SDS011;70229;48.010;7.852;2023-05-28T14:08:05;9.93;;;3.92;;
80705;SDS011;70229;48.010;7.852;2023-05-28T14:10:31;9.13;;;3.28;;
80705;SDS011;70229;48.010;7.852;2023-05-28T14:12:56;6.13;;;3.25;;
80705;SDS011;70229;48.010;7.852;2023-05-28T14:15:22;6.63;;;3.47;;
80705;SDS011;70229;48.010;7.852;2023-05-28T14:17:48;6.32;;;3.95;;
80705;SDS011;70229;48.010;7.852;2023-05-28T14:20:13;6.75;;;3.55;;
80705;SDS011;70229;48.010;7.852;2023-05-28T14:22:39;8.57;;;4.05;;
80705;SDS011;70229;48.010;7.852;2023-05-28T14:25:05;7.22;;;3.55;;
80705;SDS011;70229;48.010;7.852;2023-05-28T14:27:30;9.05;;;3.40;;
80705;SDS011;70229;48.010;7.852;2023-05-28T14:29:57;7.97;;;3.90;;
80705;SDS011;70229;48.010;7.852;2023-05-28T14:32:23;9.23;;;3.70;;
80705;SDS011;70229;48.010;7.852;2023-05-28T14:34:48;10.43;;;4.15;;
80705;SDS011;70229;48.010;7.852;2023-05-28T14:37:14;8.13;;;3.40;;
80705;SDS011;70229;48.010;7.852;2023-05-28T14:39:40;7.75;;;3.63;;
80705;SDS011;70229;48.010;7.852;2023-05-28T14:42:05;7.70;;;3.63;;
80705;SDS011;70229;48.010;7.852;2023-05-28T14:44:31;9.43;;;4.00;;
80705;SDS011;70229;48.010;7.852;2023-05-28T14:46:57;5.47;;;3.65;;
80705;SDS011;70229;48.010;7.852;2023-05-28T14:49:22;5.82;;;3.13;;
80705;SDS011;70229;48.010;7.852;2023-05-28T14:51:49;6.25;;;3.88;;